Time;durP1;ratioP1;P1;durP2;ratioP2;P2;SDS_P1;SDS_P2;PMS_P1;PMS_P2;Temp;Humidity;BMP_temperature;BMP_pressure;BME280_temperature;BME280_humidity;BME280_pressure;Samples;Min_cycle;Max_cycle;Signal;HPM_P1;HPM_P2
2022/05/02 00:02:00;;;;;;;4.38;2.80;;;;;;;;;;4905233;29;20037;-67
2022/05/02 00:04:26;;;;;;;3.65;2.70;;;;;;;;;;4905295;29;20017;-68
2022/05/02 00:06:52;;;;;;;7.40;3.05;;;;;;;;;;4907476;29;20172;-67
2022/05/02 00:09:18;;;;;;;6.55;2.85;;;;;;;;;;4905318;29;20096;-67
2022/05/02 00:11:44;;;;;;;4.90;2.80;;;;;;;;;;4899728;29;20025;-68
2022/05/02 00:14:10;;;;;;;7.32;3.08;;;;;;;;;;4886592;29;20027;-68
2022/05/02 00:16:36;;;;;;;6.88;2.60;;;;;;;;;;4904301;29;20037;-67
2022/05/02 00:19:03;;;;;;;6.57;3.00;;;;;;;;;;4902454;29;20061;-68
2022/05/02 00:21:29;;;;;;;7.97;2.90;;;;;;;;;;4906998;29;20008;-66
2022/05/02 00:23:55;;;;;;;4.47;3.10;;;;;;;;;;4918325;29;20021;-67
2022/05/02 00:26:21;;;;;;;5.40;2.83;;;;;;;;;;4906048;29;20016;-67
2022/05/02 00:28:47;;;;;;;6.07;2.80;;;;;;;;;;4906736;29;20017;-67
2022/05/02 00:31:13;;;;;;;3.88;2.70;;;;;;;;;;4904083;29;20045;-67
2022/05/02 00:33:39;;;;;;;7.47;2.97;;;;;;;;;;4901663;29;20035;-67
2022/05/02 00:36:05;;;;;;;4.32;2.72;;;;;;;;;;4888759;29;20068;-67
2022/05/02 00:38:31;;;;;;;4.45;2.75;;;;;;;;;;4902987;29;20078;-67
2022/05/02 00:40:58;;;;;;;5.93;3.05;;;;;;;;;;4907292;29;20080;-67
2022/05/02 00:43:24;;;;;;;7.65;3.00;;;;;;;;;;4906175;29;20012;-67
2022/05/02 00:45:50;;;;;;;4.13;2.70;;;;;;;;;;4905053;29;20035;-68
2022/05/02 00:48:16;;;;;;;4.47;3.00;;;;;;;;;;4905390;29;20040;-67
2022/05/02 00:50:44;;;;;;;7.65;3.20;;;;;;;;;;4902804;29;20072;-67
2022/05/02 00:53:13;;;;;;;6.22;2.80;;;;;;;;;;4906060;29;20071;-67
2022/05/02 00:55:40;;;;;;;4.28;2.60;;;;;;;;;;4913410;29;20056;-66
2022/05/02 00:58:06;;;;;;;4.43;2.80;;;;;;;;;;4909479;29;20040;-67
2022/05/02 01:00:33;;;;;;;8.85;3.13;;;;;;;;;;4910663;29;20044;-67
2022/05/02 01:03:00;;;;;;;4.38;3.05;;;;;;;;;;4906148;29;20109;-67
2022/05/02 01:05:26;;;;;;;6.70;3.05;;;;;;;;;;4908454;29;20024;-67
2022/05/02 01:07:53;;;;;;;4.38;2.63;;;;;;;;;;4907405;29;20037;-67
2022/05/02 01:10:19;;;;;;;5.65;3.20;;;;;;;;;;4910079;29;20044;-67
2022/05/02 01:12:46;;;;;;;5.22;2.95;;;;;;;;;;4906334;29;20017;-67
2022/05/02 01:15:12;;;;;;;5.13;3.00;;;;;;;;;;4911348;29;20037;-68
2022/05/02 01:17:41;;;;;;;4.70;2.85;;;;;;;;;;4908989;29;20036;-67
2022/05/02 01:20:16;;;;;;;3.78;2.63;;;;;;;;;;4907536;29;20443;-67
2022/05/02 01:22:43;;;;;;;4.50;2.97;;;;;;;;;;4905955;29;20041;-67
2022/05/02 01:25:09;;;;;;;6.55;3.10;;;;;;;;;;4908959;29;20045;-67
2022/05/02 01:27:35;;;;;;;5.38;3.15;;;;;;;;;;4908295;29;20107;-67
2022/05/02 01:30:01;;;;;;;5.15;2.55;;;;;;;;;;4907519;29;20016;-67
2022/05/02 01:32:27;;;;;;;5.28;2.80;;;;;;;;;;4908742;29;20164;-67
2022/05/02 01:34:53;;;;;;;4.55;2.72;;;;;;;;;;4906361;29;20033;-67
2022/05/02 01:37:19;;;;;;;5.65;3.10;;;;;;;;;;4908385;29;20119;-67
2022/05/02 01:39:45;;;;;;;5.82;3.15;;;;;;;;;;4905287;29;20024;-67
2022/05/02 01:42:12;;;;;;;8.63;3.22;;;;;;;;;;4907004;29;20036;-67
2022/05/02 01:44:39;;;;;;;3.30;2.70;;;;;;;;;;4905844;29;20028;-67
2022/05/02 01:47:05;;;;;;;7.07;2.88;;;;;;;;;;4909155;29;20028;-67
2022/05/02 01:49:31;;;;;;;4.78;2.85;;;;;;;;;;4906786;29;20043;-67
2022/05/02 01:51:58;;;;;;;6.93;3.17;;;;;;;;;;4907917;29;20048;-67
2022/05/02 01:54:24;;;;;;;6.07;3.35;;;;;;;;;;4908647;29;20035;-67
2022/05/02 01:56:50;;;;;;;7.30;2.95;;;;;;;;;;4905656;29;20124;-67
2022/05/02 01:59:16;;;;;;;7.97;3.88;;;;;;;;;;4911737;29;20096;-68
2022/05/02 02:01:42;;;;;;;4.43;2.80;;;;;;;;;;4905542;29;20064;-68
2022/05/02 02:06:55;;;;;;;7.88;2.80;;;;;;;;;;4907681;29;20530;-68
2022/05/02 02:09:23;;;;;;;4.93;2.80;;;;;;;;;;4908139;29;20116;-67
2022/05/02 02:11:49;;;;;;;5.30;2.85;;;;;;;;;;4906486;29;20036;-68
2022/05/02 02:14:15;;;;;;;6.05;2.92;;;;;;;;;;4906541;29;20009;-67
2022/05/02 02:16:43;;;;;;;4.28;2.90;;;;;;;;;;4905703;29;20048;-67
2022/05/02 02:19:09;;;;;;;7.53;3.15;;;;;;;;;;4909412;29;20105;-67
2022/05/02 02:21:35;;;;;;;4.97;3.20;;;;;;;;;;4906982;29;20036;-68
2022/05/02 02:24:03;;;;;;;4.97;3.40;;;;;;;;;;4906291;29;20040;-67
2022/05/02 02:26:31;;;;;;;6.45;3.42;;;;;;;;;;4906651;29;20493;-67
2022/05/02 02:28:58;;;;;;;5.45;3.00;;;;;;;;;;4907956;29;20021;-67
2022/05/02 02:31:24;;;;;;;4.68;3.08;;;;;;;;;;4930304;29;20068;-67
2022/05/02 02:33:50;;;;;;;4.72;2.88;;;;;;;;;;4896658;29;20364;-67
2022/05/02 02:36:16;;;;;;;4.53;3.08;;;;;;;;;;4915189;29;20016;-67
2022/05/02 02:38:42;;;;;;;4.60;2.80;;;;;;;;;;4914974;29;20068;-67
2022/05/02 02:41:08;;;;;;;6.72;3.10;;;;;;;;;;4917480;29;20540;-67
2022/05/02 02:43:34;;;;;;;5.70;3.00;;;;;;;;;;4912602;29;20016;-67
2022/05/02 02:46:00;;;;;;;4.07;2.78;;;;;;;;;;4912893;29;20048;-67
2022/05/02 02:48:26;;;;;;;3.70;2.97;;;;;;;;;;4913413;29;20033;-67
2022/05/02 02:50:52;;;;;;;4.22;2.80;;;;;;;;;;4909609;29;20096;-67
2022/05/02 02:53:18;;;;;;;6.80;3.20;;;;;;;;;;4902953;29;20156;-66
2022/05/02 02:55:44;;;;;;;6.28;3.17;;;;;;;;;;4902702;29;20040;-67
2022/05/02 02:58:10;;;;;;;4.72;2.95;;;;;;;;;;4906294;29;20023;-67
2022/05/02 03:00:36;;;;;;;7.70;3.40;;;;;;;;;;4906332;29;20040;-67
2022/05/02 03:03:03;;;;;;;5.47;3.17;;;;;;;;;;4903157;29;20024;-67
2022/05/02 03:08:14;;;;;;;5.88;3.25;;;;;;;;;;4906686;29;20067;-67
2022/05/02 03:10:40;;;;;;;5.78;3.30;;;;;;;;;;4910700;29;20045;-67
2022/05/02 03:13:06;;;;;;;4.35;3.38;;;;;;;;;;4905989;29;20423;-67
2022/05/02 03:15:33;;;;;;;3.88;3.17;;;;;;;;;;4902819;29;20033;-67
2022/05/02 03:17:59;;;;;;;4.38;3.13;;;;;;;;;;4905536;29;20025;-67
2022/05/02 03:20:25;;;;;;;6.13;3.40;;;;;;;;;;4906637;29;20036;-67
2022/05/02 03:22:51;;;;;;;6.07;3.45;;;;;;;;;;4909006;29;20027;-67
2022/05/02 03:25:17;;;;;;;9.88;3.33;;;;;;;;;;4904804;29;21468;-67
2022/05/02 03:27:43;;;;;;;6.03;3.15;;;;;;;;;;4906147;29;20028;-67
2022/05/02 03:30:10;;;;;;;5.75;3.80;;;;;;;;;;4907302;29;20036;-67
2022/05/02 03:32:36;;;;;;;6.70;3.75;;;;;;;;;;4909136;29;20037;-67
2022/05/02 03:35:02;;;;;;;5.15;3.70;;;;;;;;;;4907299;29;20051;-67
2022/05/02 03:37:28;;;;;;;4.53;3.13;;;;;;;;;;4905821;29;20092;-67
2022/05/02 03:39:54;;;;;;;6.05;2.85;;;;;;;;;;4908255;29;20036;-67
2022/05/02 03:42:20;;;;;;;5.30;3.30;;;;;;;;;;4890635;29;20025;-67
2022/05/02 03:44:46;;;;;;;5.82;3.22;;;;;;;;;;4911308;29;20028;-67
2022/05/02 03:47:12;;;;;;;4.50;3.53;;;;;;;;;;4904463;29;20052;-67
2022/05/02 03:49:38;;;;;;;5.00;3.35;;;;;;;;;;4907337;29;20123;-67
2022/05/02 03:52:05;;;;;;;4.50;3.20;;;;;;;;;;4908318;29;20139;-67
2022/05/02 03:54:31;;;;;;;8.10;3.50;;;;;;;;;;4890331;29;20009;-67
2022/05/02 03:56:57;;;;;;;6.78;2.90;;;;;;;;;;4904278;29;20076;-67
2022/05/02 03:59:23;;;;;;;5.15;3.00;;;;;;;;;;4905716;29;20035;-67
2022/05/02 04:01:49;;;;;;;4.30;3.10;;;;;;;;;;4887362;29;20450;-67
2022/05/02 04:04:16;;;;;;;4.80;3.00;;;;;;;;;;4904790;29;20037;-67
2022/05/02 04:06:42;;;;;;;4.57;2.90;;;;;;;;;;4909233;29;20099;-68
2022/05/02 04:09:08;;;;;;;7.00;3.28;;;;;;;;;;4902349;29;20060;-67
2022/05/02 04:11:34;;;;;;;6.57;3.38;;;;;;;;;;4904273;29;20041;-67
2022/05/02 04:14:00;;;;;;;4.88;3.10;;;;;;;;;;4906546;29;20016;-67
2022/05/02 04:16:26;;;;;;;4.90;3.10;;;;;;;;;;4906042;29;20071;-67
2022/05/02 04:18:52;;;;;;;6.30;3.22;;;;;;;;;;4906819;29;20047;-67
2022/05/02 04:21:18;;;;;;;5.13;3.53;;;;;;;;;;4903875;29;20463;-67
2022/05/02 04:23:44;;;;;;;4.47;3.30;;;;;;;;;;4905055;29;20029;-67
2022/05/02 04:26:10;;;;;;;7.15;3.35;;;;;;;;;;4906426;29;20033;-67
2022/05/02 04:28:36;;;;;;;4.18;3.30;;;;;;;;;;4908041;29;20028;-67
2022/05/02 04:31:02;;;;;;;5.93;3.50;;;;;;;;;;4912425;29;20506;-67
2022/05/02 04:33:31;;;;;;;6.60;3.17;;;;;;;;;;4909955;29;20176;-67
2022/05/02 04:35:57;;;;;;;12.20;3.65;;;;;;;;;;4912890;29;20097;-67
2022/05/02 04:38:24;;;;;;;7.43;3.28;;;;;;;;;;4909353;29;20116;-67
2022/05/02 04:40:50;;;;;;;5.60;3.65;;;;;;;;;;4910860;29;20019;-67
2022/05/02 04:43:16;;;;;;;6.50;3.42;;;;;;;;;;4912292;29;20021;-67
2022/05/02 04:45:46;;;;;;;8.20;3.60;;;;;;;;;;4908873;29;20108;-68
2022/05/02 04:48:12;;;;;;;8.00;3.45;;;;;;;;;;4909632;29;20034;-67
2022/05/02 04:50:38;;;;;;;5.40;3.60;;;;;;;;;;4909579;29;20200;-67
2022/05/02 04:53:04;;;;;;;6.43;3.42;;;;;;;;;;4910402;29;20048;-67
2022/05/02 04:55:30;;;;;;;4.78;3.35;;;;;;;;;;4912407;29;20016;-67
2022/05/02 04:57:56;;;;;;;5.75;2.95;;;;;;;;;;4918370;29;20025;-67
2022/05/02 05:00:23;;;;;;;4.78;3.17;;;;;;;;;;4915731;29;20080;-67
2022/05/02 05:02:49;;;;;;;4.28;3.30;;;;;;;;;;4912735;29;20033;-67
2022/05/02 05:05:16;;;;;;;6.45;3.38;;;;;;;;;;4912114;29;20021;-68
2022/05/02 05:07:43;;;;;;;6.03;3.17;;;;;;;;;;4909313;29;20033;-68
2022/05/02 05:10:09;;;;;;;7.03;3.30;;;;;;;;;;4909100;29;20088;-67
2022/05/02 05:12:38;;;;;;;5.75;3.20;;;;;;;;;;4912738;29;20028;-67
2022/05/02 05:18:07;;;;;;;5.78;3.42;;;;;;;;;;4909027;29;20071;-67
2022/05/02 05:20:33;;;;;;;5.63;3.22;;;;;;;;;;4916728;29;20483;-67
2022/05/02 05:23:08;;;;;;;7.78;3.30;;;;;;;;;;4915536;29;20176;-67
2022/05/02 05:25:46;;;;;;;5.43;3.13;;;;;;;;;;4915592;29;20042;-67
2022/05/02 05:28:25;;;;;;;5.10;2.85;;;;;;;;;;4915804;29;20060;-67
2022/05/02 05:30:57;;;;;;;6.18;3.15;;;;;;;;;;4915688;29;20021;-67
2022/05/02 05:33:36;;;;;;;5.47;3.00;;;;;;;;;;4917815;29;20053;-67
2022/05/02 05:36:06;;;;;;;6.88;3.03;;;;;;;;;;4917236;29;20490;-67
2022/05/02 05:38:39;;;;;;;7.05;2.80;;;;;;;;;;4912973;29;20025;-67
2022/05/02 05:41:18;;;;;;;5.82;2.90;;;;;;;;;;4905766;29;20037;-67
2022/05/02 05:44:13;;;;;;;5.10;3.08;;;;;;;;;;4904238;29;20036;-68
2022/05/02 05:46:45;;;;;;;7.18;3.35;;;;;;;;;;4879311;29;20072;-72
2022/05/02 05:49:30;;;;;;;6.30;3.20;;;;;;;;;;4900042;29;20067;-72
2022/05/02 05:51:56;;;;;;;4.95;3.30;;;;;;;;;;4898876;29;20449;-74
2022/05/02 05:54:41;;;;;;;5.88;3.35;;;;;;;;;;4896458;29;20108;-67
2022/05/02 05:57:16;;;;;;;6.70;3.28;;;;;;;;;;4900448;29;20037;-66
2022/05/02 06:00:01;;;;;;;5.03;3.05;;;;;;;;;;4898036;29;20020;-67
2022/05/02 06:02:45;;;;;;;7.57;3.30;;;;;;;;;;4898890;29;20127;-69
2022/05/02 06:05:13;;;;;;;4.15;3.00;;;;;;;;;;4900132;29;20439;-66
2022/05/02 06:07:39;;;;;;;9.82;5.50;;;;;;;;;;4894459;29;20056;-66
2022/05/02 06:10:07;;;;;;;3.63;3.03;;;;;;;;;;4902186;29;20028;-66
2022/05/02 06:12:38;;;;;;;4.95;3.60;;;;;;;;;;4898833;29;20036;-76
2022/05/02 06:20:39;;;;;;;7.57;3.47;;;;;;;;;;4898826;29;20043;-74
2022/05/02 06:23:08;;;;;;;5.75;3.42;;;;;;;;;;4896432;29;20032;-70
2022/05/02 06:25:36;;;;;;;4.53;2.95;;;;;;;;;;4898016;29;20462;-70
2022/05/02 06:28:03;;;;;;;6.82;3.20;;;;;;;;;;4898103;29;20119;-70
2022/05/02 06:30:32;;;;;;;4.70;3.10;;;;;;;;;;4897220;29;20509;-75
2022/05/02 06:33:01;;;;;;;5.22;3.17;;;;;;;;;;4896642;29;20443;-71
2022/05/02 06:35:36;;;;;;;9.63;3.33;;;;;;;;;;4896843;29;20028;-71
2022/05/02 06:38:20;;;;;;;4.93;2.90;;;;;;;;;;4894802;29;20043;-71
2022/05/02 06:40:50;;;;;;;13.85;3.58;;;;;;;;;;4896957;29;20028;-71
2022/05/02 06:43:36;;;;;;;7.78;3.40;;;;;;;;;;4898098;29;20084;-74
2022/05/02 06:46:05;;;;;;;5.05;3.20;;;;;;;;;;4901771;29;20144;-68
2022/05/02 06:48:42;;;;;;;5.68;3.10;;;;;;;;;;4898735;29;20039;-74
2022/05/02 06:51:48;;;;;;;5.25;2.85;;;;;;;;;;4897114;29;20040;-84
2022/05/02 06:54:20;;;;;;;5.00;2.85;;;;;;;;;;4804665;29;20181;-75
2022/05/02 06:56:49;;;;;;;4.28;2.90;;;;;;;;;;4815926;29;20120;-76
2022/05/02 06:59:34;;;;;;;6.05;3.17;;;;;;;;;;4821180;29;20070;-76
2022/05/02 07:02:08;;;;;;;6.85;2.92;;;;;;;;;;4819902;29;20038;-80
2022/05/02 07:04:50;;;;;;;11.55;3.10;;;;;;;;;;4816587;29;20114;-77
2022/05/02 07:07:16;;;;;;;7.00;3.03;;;;;;;;;;4821773;29;20062;-79
2022/05/02 07:09:45;;;;;;;6.50;3.15;;;;;;;;;;4819973;29;20128;-74
2022/05/02 07:12:20;;;;;;;6.15;3.00;;;;;;;;;;4819171;29;20505;-73
2022/05/02 07:15:05;;;;;;;7.95;2.90;;;;;;;;;;4821270;29;20052;-74
2022/05/02 07:17:31;;;;;;;14.55;3.58;;;;;;;;;;4816607;29;20544;-74
2022/05/02 07:20:05;;;;;;;4.40;2.97;;;;;;;;;;4817362;29;20042;-82
2022/05/02 07:22:38;;;;;;;6.90;3.00;;;;;;;;;;4821552;29;20543;-73
2022/05/02 07:25:10;;;;;;;4.93;2.97;;;;;;;;;;4824986;29;20038;-74
2022/05/02 07:27:54;;;;;;;9.43;3.38;;;;;;;;;;4833999;29;20037;-74
2022/05/02 07:30:21;;;;;;;10.15;3.20;;;;;;;;;;4894873;29;20028;-70
2022/05/02 07:32:48;;;;;;;6.65;2.70;;;;;;;;;;4897521;29;20052;-80
2022/05/02 07:35:14;;;;;;;4.53;2.95;;;;;;;;;;4895745;29;20095;-78
2022/05/02 07:37:42;;;;;;;5.32;2.75;;;;;;;;;;4896081;29;20071;-78
2022/05/02 07:40:11;;;;;;;5.60;3.20;;;;;;;;;;4896713;29;20080;-74
2022/05/02 07:42:37;;;;;;;5.93;3.03;;;;;;;;;;4896883;29;20024;-78
2022/05/02 07:45:07;;;;;;;5.28;3.20;;;;;;;;;;4879455;29;20502;-71
2022/05/02 07:47:33;;;;;;;5.90;2.88;;;;;;;;;;4896099;29;20506;-76
2022/05/02 07:49:59;;;;;;;10.05;3.10;;;;;;;;;;4897225;29;20088;-70
2022/05/02 07:52:26;;;;;;;7.93;3.10;;;;;;;;;;4895128;29;20132;-74
2022/05/02 07:54:52;;;;;;;6.60;2.70;;;;;;;;;;4895605;29;20073;-73
2022/05/02 07:57:20;;;;;;;5.95;2.70;;;;;;;;;;4887036;29;20063;-73
2022/05/02 07:59:49;;;;;;;8.10;3.00;;;;;;;;;;4896344;29;20076;-74
2022/05/02 08:02:18;;;;;;;10.25;2.90;;;;;;;;;;4896443;29;20025;-76
2022/05/02 08:04:47;;;;;;;5.30;2.90;;;;;;;;;;4899885;29;20035;-71
2022/05/02 08:07:22;;;;;;;7.65;3.45;;;;;;;;;;4890731;29;20053;-70
2022/05/02 08:10:00;;;;;;;10.55;3.03;;;;;;;;;;4899871;29;20104;-83
2022/05/02 08:12:37;;;;;;;6.47;3.40;;;;;;;;;;4895792;29;20044;-76
2022/05/02 08:15:07;;;;;;;9.35;3.40;;;;;;;;;;4898527;29;20383;-70
2022/05/02 08:17:58;;;;;;;11.63;3.22;;;;;;;;;;4897473;29;20033;-69
2022/05/02 08:20:24;;;;;;;6.50;2.95;;;;;;;;;;4899520;29;20029;-72
2022/05/02 08:28:39;;;;;;;4.57;2.78;;;;;;;;;;4903369;29;20055;-71
2022/05/02 08:31:21;;;;;;;10.55;3.70;;;;;;;;;;4898738;29;20041;-71
2022/05/02 08:34:12;;;;;;;4.75;3.03;;;;;;;;;;4899990;29;20040;-79
2022/05/02 08:36:57;;;;;;;6.85;2.83;;;;;;;;;;4889651;29;20045;-71
2022/05/02 08:39:31;;;;;;;49.92;5.95;;;;;;;;;;4899913;29;20056;-68
2022/05/02 08:42:01;;;;;;;20.80;3.20;;;;;;;;;;4902973;29;20032;-70
2022/05/02 08:44:46;;;;;;;7.28;2.60;;;;;;;;;;4901945;29;20024;-69
2022/05/02 08:47:12;;;;;;;7.30;2.70;;;;;;;;;;4901146;29;20029;-72
2022/05/02 08:49:40;;;;;;;5.78;2.90;;;;;;;;;;4901292;29;20025;-69
2022/05/02 08:52:06;;;;;;;4.22;2.75;;;;;;;;;;4902656;29;20033;-71
2022/05/02 08:54:52;;;;;;;7.82;2.95;;;;;;;;;;4901550;29;20581;-69
2022/05/02 08:57:41;;;;;;;10.25;3.08;;;;;;;;;;4891221;29;20145;-69
2022/05/02 09:00:09;;;;;;;6.03;2.78;;;;;;;;;;4900586;29;20107;-69
2022/05/02 09:02:50;;;;;;;13.23;2.70;;;;;;;;;;4900644;29;20038;-69
2022/05/02 09:05:35;;;;;;;5.40;2.72;;;;;;;;;;4897557;29;20025;-69
2022/05/02 09:08:14;;;;;;;5.20;2.65;;;;;;;;;;4900458;29;20051;-69
2022/05/02 09:10:52;;;;;;;6.63;2.88;;;;;;;;;;4893379;29;20076;-69
2022/05/02 09:13:37;;;;;;;4.90;2.60;;;;;;;;;;4898904;29;20116;-69
2022/05/02 09:16:33;;;;;;;6.88;2.80;;;;;;;;;;4899480;29;20072;-69
2022/05/02 09:19:18;;;;;;;6.55;2.80;;;;;;;;;;4887965;29;20466;-69
2022/05/02 09:22:02;;;;;;;5.82;2.72;;;;;;;;;;4899980;29;20036;-84
2022/05/02 09:24:28;;;;;;;6.70;2.65;;;;;;;;;;4899896;29;20051;-69
2022/05/02 09:27:13;;;;;;;7.40;2.92;;;;;;;;;;4899113;29;20048;-69
2022/05/02 09:29:58;;;;;;;23.17;3.40;;;;;;;;;;4899522;29;20124;-69
2022/05/02 09:32:24;;;;;;;7.35;3.15;;;;;;;;;;4898658;29;20045;-69
2022/05/02 09:34:56;;;;;;;8.02;2.65;;;;;;;;;;4899472;29;20487;-69
2022/05/02 09:37:26;;;;;;;6.85;2.58;;;;;;;;;;4890880;29;20036;-70
2022/05/02 09:40:01;;;;;;;5.72;2.63;;;;;;;;;;4899510;29;20052;-70
2022/05/02 09:42:30;;;;;;;5.82;2.50;;;;;;;;;;4898915;29;20076;-69
2022/05/02 09:51:14;;;;;;;9.48;2.80;;;;;;;;;;4888496;29;20127;-72
2022/05/02 09:53:43;;;;;;;7.70;2.83;;;;;;;;;;4898114;29;20024;-69
2022/05/02 09:56:38;;;;;;;5.18;2.92;;;;;;;;;;4897910;29;20501;-69
2022/05/02 09:59:24;;;;;;;4.35;2.65;;;;;;;;;;4894237;29;20495;-70
2022/05/02 10:02:11;;;;;;;5.47;2.88;;;;;;;;;;4896594;29;20043;-81
2022/05/02 10:04:48;;;;;;;5.15;2.60;;;;;;;;;;4891343;29;20072;-69
2022/05/02 10:07:19;;;;;;;4.88;2.30;;;;;;;;;;4898779;29;20056;-70
2022/05/02 10:10:06;;;;;;;5.55;2.40;;;;;;;;;;4899288;29;20089;-70
2022/05/02 10:12:32;;;;;;;3.85;2.42;;;;;;;;;;4887274;29;20527;-69
2022/05/02 10:15:25;;;;;;;6.95;2.50;;;;;;;;;;4898738;29;20173;-69
2022/05/02 10:17:58;;;;;;;3.80;2.50;;;;;;;;;;4876973;29;20093;-70
2022/05/02 10:20:24;;;;;;;;;;;;;;;;;;4897222;29;20035;-70
2022/05/02 10:23:25;;;;;;;10.13;2.50;;;;;;;;;;4895220;29;19912;-74
2022/05/02 10:26:01;;;;;;;6.50;3.15;;;;;;;;;;4821855;29;20493;-72
2022/05/02 10:28:46;;;;;;;5.68;2.60;;;;;;;;;;4822076;29;20050;-73
2022/05/02 10:31:25;;;;;;;8.63;3.38;;;;;;;;;;4822764;29;20409;-72
2022/05/02 10:33:52;;;;;;;9.10;2.92;;;;;;;;;;4821754;29;20050;-71
2022/05/02 10:36:23;;;;;;;7.20;2.90;;;;;;;;;;4822209;29;20038;-72
2022/05/02 10:38:51;;;;;;;8.88;3.45;;;;;;;;;;4822830;29;20517;-72
2022/05/02 10:41:21;;;;;;;5.50;3.33;;;;;;;;;;4822125;29;20061;-72
2022/05/02 10:43:53;;;;;;;8.18;3.30;;;;;;;;;;4822600;29;20026;-71
2022/05/02 10:46:21;;;;;;;4.60;3.40;;;;;;;;;;4821318;29;20049;-71
2022/05/02 10:48:52;;;;;;;6.53;3.65;;;;;;;;;;4822518;29;20307;-72
2022/05/02 10:51:22;;;;;;;5.60;3.17;;;;;;;;;;4821990;29;20058;-73
2022/05/02 10:54:00;;;;;;;9.30;2.90;;;;;;;;;;4822488;29;20031;-71
2022/05/02 10:56:29;;;;;;;6.65;2.80;;;;;;;;;;4821850;29;20478;-71
2022/05/02 10:58:56;;;;;;;5.53;3.13;;;;;;;;;;4828845;29;20038;-72
2022/05/02 11:01:35;;;;;;;5.30;3.05;;;;;;;;;;4898187;29;20383;-72
2022/05/02 11:04:01;;;;;;;8.60;3.70;;;;;;;;;;4898029;29;20483;-71
2022/05/02 11:06:35;;;;;;;8.68;3.20;;;;;;;;;;4898060;29;20048;-71
2022/05/02 11:09:04;;;;;;;5.32;3.28;;;;;;;;;;4896409;29;20052;-72
2022/05/02 11:11:46;;;;;;;5.35;3.03;;;;;;;;;;4897637;29;20041;-71
2022/05/02 11:14:21;;;;;;;5.60;2.57;;;;;;;;;;4896661;29;20040;-71
2022/05/02 11:16:54;;;;;;;5.70;3.00;;;;;;;;;;4893814;29;20036;-71
2022/05/02 11:22:30;;;;;;;2.85;2.33;;;;;;;;;;4896321;29;20407;-73
2022/05/02 11:25:07;;;;;;;5.22;2.95;;;;;;;;;;4897269;29;20840;-72
2022/05/02 11:27:44;;;;;;;4.90;2.88;;;;;;;;;;4902916;29;20479;-73
2022/05/02 11:30:12;;;;;;;10.00;3.47;;;;;;;;;;4901210;29;20036;-71
2022/05/02 11:32:40;;;;;;;5.60;2.70;;;;;;;;;;4895939;29;20040;-70
2022/05/02 11:35:14;;;;;;;6.35;2.90;;;;;;;;;;4897092;29;20108;-70
2022/05/02 11:37:48;;;;;;;6.82;2.70;;;;;;;;;;4895794;29;20033;-68
2022/05/02 11:40:16;;;;;;;6.65;2.60;;;;;;;;;;4897834;29;20049;-69
2022/05/02 11:42:43;;;;;;;6.22;2.80;;;;;;;;;;4895781;29;20111;-70
2022/05/02 11:45:12;;;;;;;5.00;2.80;;;;;;;;;;4901729;29;20084;-75
2022/05/02 11:47:58;;;;;;;4.70;2.88;;;;;;;;;;4897212;29;20029;-87
2022/05/02 11:50:27;;;;;;;4.20;2.67;;;;;;;;;;4897854;29;20103;-77
2022/05/02 11:52:57;;;;;;;7.30;2.65;;;;;;;;;;4895121;29;20164;-77
2022/05/02 11:55:34;;;;;;;7.90;2.50;;;;;;;;;;4886345;29;20033;-83
2022/05/02 11:58:00;;;;;;;4.13;2.40;;;;;;;;;;4895309;29;20020;-73
2022/05/02 12:00:31;;;;;;;7.32;2.70;;;;;;;;;;4897358;29;20108;-74
2022/05/02 12:03:04;;;;;;;6.10;2.75;;;;;;;;;;4894297;29;20036;-78
2022/05/02 12:05:33;;;;;;;10.98;3.88;;;;;;;;;;4895121;29;20033;-74
2022/05/02 12:08:00;;;;;;;5.68;2.83;;;;;;;;;;4893511;29;20047;-70
2022/05/02 12:10:35;;;;;;;4.60;3.35;;;;;;;;;;4896908;29;20028;-74
2022/05/02 12:13:02;;;;;;;8.52;2.65;;;;;;;;;;4897449;29;20037;-67
2022/05/02 12:15:28;;;;;;;5.65;3.60;;;;;;;;;;4895954;29;20017;-67
2022/05/02 12:17:54;;;;;;;6.55;3.30;;;;;;;;;;4894184;29;20033;-70
2022/05/02 12:20:24;;;;;;;5.07;2.70;;;;;;;;;;4894997;29;20479;-69
2022/05/02 12:23:20;;;;;;;4.82;2.70;;;;;;;;;;4898538;29;20128;-72
2022/05/02 12:25:47;;;;;;;10.95;3.38;;;;;;;;;;4818909;29;20425;-68
2022/05/02 12:28:13;;;;;;;5.43;2.80;;;;;;;;;;4811506;29;20039;-75
2022/05/02 12:30:41;;;;;;;5.85;2.65;;;;;;;;;;4815433;29;20061;-69
2022/05/02 12:33:08;;;;;;;6.85;3.00;;;;;;;;;;4820026;29;20042;-84
2022/05/02 12:35:35;;;;;;;6.68;3.15;;;;;;;;;;4817238;29;20048;-71
2022/05/02 12:38:10;;;;;;;4.53;2.65;;;;;;;;;;4819846;29;20069;-70
2022/05/02 12:40:36;;;;;;;5.65;2.65;;;;;;;;;;4818633;29;20062;-69
2022/05/02 12:43:09;;;;;;;3.83;2.55;;;;;;;;;;4816489;29;20170;-69
2022/05/02 12:45:46;;;;;;;2.95;2.42;;;;;;;;;;4818683;29;20042;-69
2022/05/02 12:48:22;;;;;;;5.13;2.50;;;;;;;;;;4817138;29;20076;-68
2022/05/02 12:50:49;;;;;;;7.15;2.55;;;;;;;;;;4817525;29;20050;-70
2022/05/02 12:54:09;;;;;;;6.20;2.95;;;;;;;;;;4820389;29;20046;-69
2022/05/02 12:56:05;;;;;;;4.97;2.80;;;;;;;;;;4819549;29;20046;-83
2022/05/02 13:01:17;;;;;;;7.55;3.20;;;;;;;;;;4825697;29;20048;-76
2022/05/02 13:03:44;;;;;;;5.50;2.70;;;;;;;;;;4898085;29;20035;-76
2022/05/02 13:06:11;;;;;;;3.70;2.45;;;;;;;;;;4894830;29;20048;-80
2022/05/02 13:08:41;;;;;;;6.80;2.97;;;;;;;;;;4899375;29;20498;-76
2022/05/02 13:11:15;;;;;;;4.03;2.70;;;;;;;;;;4900392;29;20037;-75
2022/05/02 13:13:48;;;;;;;8.80;2.90;;;;;;;;;;4900278;29;20029;-75
2022/05/02 13:16:17;;;;;;;5.45;2.92;;;;;;;;;;4897374;29;20029;-74
2022/05/02 13:18:47;;;;;;;3.78;2.70;;;;;;;;;;4898892;29;20059;-76
2022/05/02 13:21:13;;;;;;;6.75;2.88;;;;;;;;;;4901029;29;20440;-75
2022/05/02 13:23:40;;;;;;;7.07;2.90;;;;;;;;;;4898923;29;20561;-76
2022/05/02 13:26:13;;;;;;;8.30;3.30;;;;;;;;;;4897979;29;20037;-75
2022/05/02 13:28:58;;;;;;;9.40;3.35;;;;;;;;;;4892352;29;20463;-76
2022/05/02 13:31:24;;;;;;;10.20;3.50;;;;;;;;;;4895866;29;20040;-75
2022/05/02 13:33:53;;;;;;;7.75;3.50;;;;;;;;;;4897292;29;20034;-75
2022/05/02 13:36:23;;;;;;;6.55;3.28;;;;;;;;;;4897856;29;20036;-78
2022/05/02 13:39:09;;;;;;;6.65;3.03;;;;;;;;;;4897199;29;20514;-80
2022/05/02 13:41:57;;;;;;;10.95;3.90;;;;;;;;;;4879363;29;20536;-77
2022/05/02 13:44:29;;;;;;;10.68;4.88;;;;;;;;;;4876627;29;20045;-72
2022/05/02 13:46:59;;;;;;;12.98;3.72;;;;;;;;;;4885665;29;20044;-72
2022/05/02 13:49:35;;;;;;;9.00;3.28;;;;;;;;;;4886236;29;20036;-72
2022/05/02 13:52:01;;;;;;;6.18;2.78;;;;;;;;;;4883544;29;20041;-73
2022/05/02 13:54:29;;;;;;;6.82;3.47;;;;;;;;;;4896160;29;20498;-72
2022/05/02 13:57:05;;;;;;;11.43;3.33;;;;;;;;;;4897188;29;20040;-72
2022/05/02 13:59:37;;;;;;;6.93;3.58;;;;;;;;;;4897063;29;20036;-71
2022/05/02 14:02:06;;;;;;;9.50;3.50;;;;;;;;;;4896521;29;20103;-80
2022/05/02 14:04:40;;;;;;;4.53;2.75;;;;;;;;;;4897316;29;20510;-72
2022/05/02 14:07:14;;;;;;;6.07;3.30;;;;;;;;;;4899175;29;20119;-75
2022/05/02 14:09:48;;;;;;;8.30;3.50;;;;;;;;;;4892435;29;20053;-72
2022/05/02 14:12:23;;;;;;;12.23;3.15;;;;;;;;;;4898625;29;20045;-81
2022/05/02 14:14:56;;;;;;;4.72;3.00;;;;;;;;;;4897985;29;20535;-75
2022/05/02 14:17:50;;;;;;;5.65;3.17;;;;;;;;;;4898700;29;20028;-72
2022/05/02 14:20:28;;;;;;;11.85;3.20;;;;;;;;;;4897480;29;20060;-74
2022/05/02 14:23:09;;;;;;;11.25;3.70;;;;;;;;;;4902374;29;20112;-72
2022/05/02 14:25:35;;;;;;;4.60;2.70;;;;;;;;;;4898170;29;20500;-74
2022/05/02 14:28:02;;;;;;;7.00;2.80;;;;;;;;;;4899222;29;20025;-71
2022/05/02 14:30:28;;;;;;;6.43;2.90;;;;;;;;;;4898721;29;20063;-74
2022/05/02 14:32:58;;;;;;;8.85;3.30;;;;;;;;;;4898711;29;20067;-73
2022/05/02 14:35:28;;;;;;;6.07;3.10;;;;;;;;;;4898342;29;20029;-72
2022/05/02 14:37:56;;;;;;;4.88;2.92;;;;;;;;;;4895765;29;20103;-73
2022/05/02 14:40:22;;;;;;;7.63;3.10;;;;;;;;;;4898539;29;20107;-71
2022/05/02 14:42:52;;;;;;;7.60;3.33;;;;;;;;;;4886018;29;20024;-71
2022/05/02 14:45:21;;;;;;;7.47;3.38;;;;;;;;;;4893641;29;20036;-81
2022/05/02 14:47:52;;;;;;;6.63;2.88;;;;;;;;;;4882629;29;20056;-79
2022/05/02 14:50:21;;;;;;;8.68;3.00;;;;;;;;;;4883184;29;20040;-76
2022/05/02 14:52:50;;;;;;;7.60;3.50;;;;;;;;;;4879856;29;20037;-81
2022/05/02 14:55:17;;;;;;;6.88;3.25;;;;;;;;;;4881429;29;20054;-74
2022/05/02 14:57:46;;;;;;;7.15;3.22;;;;;;;;;;4880427;29;20081;-77
2022/05/02 15:00:13;;;;;;;11.30;3.20;;;;;;;;;;4881406;29;20057;-77
2022/05/02 15:02:40;;;;;;;6.88;3.08;;;;;;;;;;4884465;29;20032;-73
2022/05/02 15:05:08;;;;;;;7.15;3.05;;;;;;;;;;4896877;29;20063;-85
2022/05/02 15:07:53;;;;;;;8.45;3.00;;;;;;;;;;4898217;29;20074;-78
2022/05/02 15:10:19;;;;;;;6.63;3.00;;;;;;;;;;4898046;29;20029;-84
2022/05/02 15:13:04;;;;;;;6.40;2.78;;;;;;;;;;4897728;29;20372;-70
2022/05/02 15:15:53;;;;;;;6.68;2.58;;;;;;;;;;4898024;29;20033;-70
2022/05/02 15:18:39;;;;;;;5.10;2.90;;;;;;;;;;4890275;29;20048;-71
2022/05/02 15:21:12;;;;;;;5.25;2.80;;;;;;;;;;4892804;29;20040;-85
2022/05/02 15:23:38;;;;;;;4.50;2.83;;;;;;;;;;4901790;29;20096;-80
2022/05/02 15:26:04;;;;;;;4.95;2.65;;;;;;;;;;4898454;29;20402;-70
2022/05/02 15:37:36;;;;;;;5.00;2.63;;;;;;;;;;4897812;29;20072;-71
2022/05/02 15:40:21;;;;;;;5.30;3.03;;;;;;;;;;4884126;29;20080;-73
2022/05/02 15:43:07;;;;;;;8.80;3.45;;;;;;;;;;4888913;29;20028;-77
2022/05/02 15:45:36;;;;;;;7.00;2.83;;;;;;;;;;4892357;29;20033;-76
2022/05/02 15:48:02;;;;;;;5.28;2.80;;;;;;;;;;4895206;29;20479;-72